sensor_id;sensor_type;location;lat;lon;timestamp;P1;durP1;ratioP1;P2;durP2;ratioP2
75535;SDS011;64119;52.070;20.804;2023-11-21T00:00:56;12.50;;;5.50;;
75535;SDS011;64119;52.070;20.804;2023-11-21T00:03:38;12.40;;;5.80;;
75535;SDS011;64119;52.070;20.804;2023-11-21T00:06:06;10.20;;;5.20;;
75535;SDS011;64119;52.070;20.804;2023-11-21T00:08:36;12.00;;;6.00;;
75535;SDS011;64119;52.070;20.804;2023-11-21T00:11:04;7.70;;;4.10;;
75535;SDS011;64119;52.070;20.804;2023-11-21T00:13:33;12.40;;;5.50;;
75535;SDS011;64119;52.070;20.804;2023-11-21T00:16:01;17.70;;;7.00;;
75535;SDS011;64119;52.070;20.804;2023-11-21T00:18:29;11.10;;;4.70;;
75535;SDS011;64119;52.070;20.804;2023-11-21T00:20:56;10.20;;;5.20;;
75535;SDS011;64119;52.070;20.804;2023-11-21T00:23:26;13.00;;;6.00;;
75535;SDS011;64119;52.070;20.804;2023-11-21T00:25:54;12.70;;;5.50;;
75535;SDS011;64119;52.070;20.804;2023-11-21T00:28:22;14.50;;;7.10;;
75535;SDS011;64119;52.070;20.804;2023-11-21T00:30:49;13.80;;;6.60;;
75535;SDS011;64119;52.070;20.804;2023-11-21T00:33:17;14.20;;;6.40;;
75535;SDS011;64119;52.070;20.804;2023-11-21T00:35:46;13.20;;;5.90;;
75535;SDS011;64119;52.070;20.804;2023-11-21T00:38:14;18.00;;;7.50;;
75535;SDS011;64119;52.070;20.804;2023-11-21T00:40:42;16.40;;;6.90;;
75535;SDS011;64119;52.070;20.804;2023-11-21T00:43:10;12.50;;;6.40;;
75535;SDS011;64119;52.070;20.804;2023-11-21T00:45:37;12.00;;;5.30;;
75535;SDS011;64119;52.070;20.804;2023-11-21T00:48:07;14.60;;;6.90;;
75535;SDS011;64119;52.070;20.804;2023-11-21T00:50:35;15.30;;;7.10;;
75535;SDS011;64119;52.070;20.804;2023-11-21T00:53:03;13.80;;;7.20;;
75535;SDS011;64119;52.070;20.804;2023-11-21T00:55:31;9.10;;;4.50;;
75535;SDS011;64119;52.070;20.804;2023-11-21T00:57:59;15.10;;;7.80;;
75535;SDS011;64119;52.070;20.804;2023-11-21T01:00:27;12.60;;;6.10;;
75535;SDS011;64119;52.070;20.804;2023-11-21T01:02:55;15.70;;;8.00;;
75535;SDS011;64119;52.070;20.804;2023-11-21T01:05:23;15.50;;;7.00;;
75535;SDS011;64119;52.070;20.804;2023-11-21T01:07:50;12.10;;;6.00;;
75535;SDS011;64119;52.070;20.804;2023-11-21T01:10:18;13.90;;;6.30;;
75535;SDS011;64119;52.070;20.804;2023-11-21T01:12:46;12.30;;;6.90;;
75535;SDS011;64119;52.070;20.804;2023-11-21T01:15:14;16.40;;;6.20;;
75535;SDS011;64119;52.070;20.804;2023-11-21T01:17:42;15.60;;;6.80;;
75535;SDS011;64119;52.070;20.804;2023-11-21T01:20:11;14.10;;;6.40;;
75535;SDS011;64119;52.070;20.804;2023-11-21T01:22:41;15.10;;;7.30;;
75535;SDS011;64119;52.070;20.804;2023-11-21T01:25:09;11.60;;;5.20;;
75535;SDS011;64119;52.070;20.804;2023-11-21T01:27:38;13.70;;;7.20;;
75535;SDS011;64119;52.070;20.804;2023-11-21T01:30:06;14.30;;;6.70;;
75535;SDS011;64119;52.070;20.804;2023-11-21T01:32:35;14.90;;;8.00;;
75535;SDS011;64119;52.070;20.804;2023-11-21T01:35:04;12.00;;;6.30;;
75535;SDS011;64119;52.070;20.804;2023-11-21T01:37:33;10.30;;;5.30;;
75535;SDS011;64119;52.070;20.804;2023-11-21T01:40:01;14.70;;;7.40;;
75535;SDS011;64119;52.070;20.804;2023-11-21T01:42:32;14.50;;;6.80;;
75535;SDS011;64119;52.070;20.804;2023-11-21T01:45:02;20.10;;;8.80;;
75535;SDS011;64119;52.070;20.804;2023-11-21T01:47:32;15.80;;;8.70;;
75535;SDS011;64119;52.070;20.804;2023-11-21T01:50:02;20.30;;;9.20;;
75535;SDS011;64119;52.070;20.804;2023-11-21T01:52:36;12.20;;;5.70;;
75535;SDS011;64119;52.070;20.804;2023-11-21T01:55:06;19.10;;;8.30;;
75535;SDS011;64119;52.070;20.804;2023-11-21T01:57:36;21.80;;;9.70;;
75535;SDS011;64119;52.070;20.804;2023-11-21T02:00:07;19.30;;;9.00;;
75535;SDS011;64119;52.070;20.804;2023-11-21T02:02:47;18.00;;;9.30;;
75535;SDS011;64119;52.070;20.804;2023-11-21T02:05:16;16.90;;;8.00;;
75535;SDS011;64119;52.070;20.804;2023-11-21T02:07:46;12.60;;;5.40;;
75535;SDS011;64119;52.070;20.804;2023-11-21T02:10:20;22.70;;;9.10;;
75535;SDS011;64119;52.070;20.804;2023-11-21T02:12:52;19.90;;;9.50;;
75535;SDS011;64119;52.070;20.804;2023-11-21T02:15:22;21.00;;;9.40;;
75535;SDS011;64119;52.070;20.804;2023-11-21T02:20:20;23.30;;;11.20;;
75535;SDS011;64119;52.070;20.804;2023-11-21T02:22:50;21.20;;;9.10;;
75535;SDS011;64119;52.070;20.804;2023-11-21T02:25:26;17.50;;;7.40;;
75535;SDS011;64119;52.070;20.804;2023-11-21T02:27:56;16.40;;;7.50;;
75535;SDS011;64119;52.070;20.804;2023-11-21T02:30:25;19.30;;;9.70;;
75535;SDS011;64119;52.070;20.804;2023-11-21T02:32:55;17.70;;;7.30;;
75535;SDS011;64119;52.070;20.804;2023-11-21T02:35:26;19.60;;;9.40;;
75535;SDS011;64119;52.070;20.804;2023-11-21T02:37:54;26.40;;;11.60;;
75535;SDS011;64119;52.070;20.804;2023-11-21T02:40:22;21.70;;;8.50;;
75535;SDS011;64119;52.070;20.804;2023-11-21T02:42:52;18.70;;;8.70;;
75535;SDS011;64119;52.070;20.804;2023-11-21T02:45:20;21.00;;;9.20;;
75535;SDS011;64119;52.070;20.804;2023-11-21T02:47:51;22.10;;;10.20;;
75535;SDS011;64119;52.070;20.804;2023-11-21T02:50:21;20.40;;;9.90;;
75535;SDS011;64119;52.070;20.804;2023-11-21T02:52:51;22.00;;;9.10;;
75535;SDS011;64119;52.070;20.804;2023-11-21T02:55:20;18.20;;;7.70;;
75535;SDS011;64119;52.070;20.804;2023-11-21T02:57:48;18.40;;;8.60;;
75535;SDS011;64119;52.070;20.804;2023-11-21T03:00:16;24.90;;;10.20;;
75535;SDS011;64119;52.070;20.804;2023-11-21T03:02:44;26.50;;;10.90;;
75535;SDS011;64119;52.070;20.804;2023-11-21T03:05:12;20.90;;;9.90;;
75535;SDS011;64119;52.070;20.804;2023-11-21T03:07:40;21.00;;;8.80;;
75535;SDS011;64119;52.070;20.804;2023-11-21T03:10:08;18.10;;;8.80;;
75535;SDS011;64119;52.070;20.804;2023-11-21T03:12:38;22.80;;;10.30;;
75535;SDS011;64119;52.070;20.804;2023-11-21T03:15:07;22.60;;;10.00;;
75535;SDS011;64119;52.070;20.804;2023-11-21T03:17:39;21.10;;;10.30;;
75535;SDS011;64119;52.070;20.804;2023-11-21T03:20:07;24.90;;;11.60;;
75535;SDS011;64119;52.070;20.804;2023-11-21T03:22:39;24.50;;;10.70;;
75535;SDS011;64119;52.070;20.804;2023-11-21T03:25:07;21.00;;;10.10;;
75535;SDS011;64119;52.070;20.804;2023-11-21T03:27:38;24.70;;;10.70;;
75535;SDS011;64119;52.070;20.804;2023-11-21T03:30:07;21.80;;;10.30;;
75535;SDS011;64119;52.070;20.804;2023-11-21T03:32:36;19.10;;;8.90;;
75535;SDS011;64119;52.070;20.804;2023-11-21T03:35:05;17.60;;;9.40;;
75535;SDS011;64119;52.070;20.804;2023-11-21T03:37:34;28.00;;;13.20;;
75535;SDS011;64119;52.070;20.804;2023-11-21T03:40:02;18.40;;;9.60;;
75535;SDS011;64119;52.070;20.804;2023-11-21T03:42:31;22.30;;;10.30;;
75535;SDS011;64119;52.070;20.804;2023-11-21T03:44:59;23.40;;;9.60;;
75535;SDS011;64119;52.070;20.804;2023-11-21T03:47:27;15.40;;;7.10;;
75535;SDS011;64119;52.070;20.804;2023-11-21T03:49:56;20.40;;;10.50;;
75535;SDS011;64119;52.070;20.804;2023-11-21T03:52:24;15.10;;;7.90;;
75535;SDS011;64119;52.070;20.804;2023-11-21T03:54:52;21.60;;;9.30;;
75535;SDS011;64119;52.070;20.804;2023-11-21T03:57:20;16.60;;;8.30;;
75535;SDS011;64119;52.070;20.804;2023-11-21T03:59:48;18.20;;;8.00;;
75535;SDS011;64119;52.070;20.804;2023-11-21T04:02:16;13.60;;;6.40;;
75535;SDS011;64119;52.070;20.804;2023-11-21T04:04:44;10.00;;;5.50;;
75535;SDS011;64119;52.070;20.804;2023-11-21T04:07:13;12.20;;;6.60;;
75535;SDS011;64119;52.070;20.804;2023-11-21T04:09:41;17.40;;;8.20;;
75535;SDS011;64119;52.070;20.804;2023-11-21T04:12:09;13.60;;;6.80;;
75535;SDS011;64119;52.070;20.804;2023-11-21T04:14:37;17.10;;;8.70;;
75535;SDS011;64119;52.070;20.804;2023-11-21T04:17:05;16.40;;;8.70;;
75535;SDS011;64119;52.070;20.804;2023-11-21T04:19:33;11.20;;;6.20;;
75535;SDS011;64119;52.070;20.804;2023-11-21T04:22:01;15.10;;;7.50;;
75535;SDS011;64119;52.070;20.804;2023-11-21T04:24:28;10.60;;;6.60;;
75535;SDS011;64119;52.070;20.804;2023-11-21T04:26:56;11.40;;;6.00;;
75535;SDS011;64119;52.070;20.804;2023-11-21T04:29:24;16.00;;;8.10;;
75535;SDS011;64119;52.070;20.804;2023-11-21T04:31:52;14.90;;;7.80;;
75535;SDS011;64119;52.070;20.804;2023-11-21T04:34:20;14.40;;;7.40;;
75535;SDS011;64119;52.070;20.804;2023-11-21T04:36:47;10.30;;;5.40;;
75535;SDS011;64119;52.070;20.804;2023-11-21T04:39:15;15.50;;;8.30;;
75535;SDS011;64119;52.070;20.804;2023-11-21T04:41:43;15.30;;;7.70;;
75535;SDS011;64119;52.070;20.804;2023-11-21T04:44:11;17.90;;;9.60;;
75535;SDS011;64119;52.070;20.804;2023-11-21T04:46:38;16.00;;;8.30;;
75535;SDS011;64119;52.070;20.804;2023-11-21T04:49:06;15.80;;;8.30;;
75535;SDS011;64119;52.070;20.804;2023-11-21T04:51:34;14.50;;;8.00;;
75535;SDS011;64119;52.070;20.804;2023-11-21T04:54:02;13.10;;;6.30;;
75535;SDS011;64119;52.070;20.804;2023-11-21T04:56:30;11.50;;;6.40;;
75535;SDS011;64119;52.070;20.804;2023-11-21T04:58:58;14.80;;;7.00;;
75535;SDS011;64119;52.070;20.804;2023-11-21T05:01:25;12.60;;;6.50;;
75535;SDS011;64119;52.070;20.804;2023-11-21T05:03:53;10.90;;;6.10;;
75535;SDS011;64119;52.070;20.804;2023-11-21T05:06:21;12.90;;;6.50;;
75535;SDS011;64119;52.070;20.804;2023-11-21T05:08:49;14.10;;;6.60;;
75535;SDS011;64119;52.070;20.804;2023-11-21T05:11:24;11.60;;;6.30;;
75535;SDS011;64119;52.070;20.804;2023-11-21T05:13:55;14.20;;;7.00;;
75535;SDS011;64119;52.070;20.804;2023-11-21T05:16:25;14.90;;;6.70;;
75535;SDS011;64119;52.070;20.804;2023-11-21T05:18:55;15.40;;;6.90;;
75535;SDS011;64119;52.070;20.804;2023-11-21T05:21:28;11.30;;;5.20;;
75535;SDS011;64119;52.070;20.804;2023-11-21T05:23:57;10.90;;;5.50;;
75535;SDS011;64119;52.070;20.804;2023-11-21T05:26:25;12.10;;;7.20;;
75535;SDS011;64119;52.070;20.804;2023-11-21T05:28:53;13.10;;;7.10;;
75535;SDS011;64119;52.070;20.804;2023-11-21T05:31:21;12.90;;;6.10;;
75535;SDS011;64119;52.070;20.804;2023-11-21T05:33:49;14.30;;;7.50;;
75535;SDS011;64119;52.070;20.804;2023-11-21T05:36:17;13.70;;;6.10;;
75535;SDS011;64119;52.070;20.804;2023-11-21T05:38:44;14.80;;;7.10;;
75535;SDS011;64119;52.070;20.804;2023-11-21T05:41:13;15.50;;;7.20;;
75535;SDS011;64119;52.070;20.804;2023-11-21T05:43:41;10.80;;;6.10;;
75535;SDS011;64119;52.070;20.804;2023-11-21T05:46:09;11.50;;;5.80;;
75535;SDS011;64119;52.070;20.804;2023-11-21T05:48:37;12.60;;;5.80;;
75535;SDS011;64119;52.070;20.804;2023-11-21T05:51:06;10.40;;;5.90;;
75535;SDS011;64119;52.070;20.804;2023-11-21T05:53:34;6.90;;;3.00;;
75535;SDS011;64119;52.070;20.804;2023-11-21T05:56:01;12.10;;;6.40;;
75535;SDS011;64119;52.070;20.804;2023-11-21T05:58:31;11.60;;;6.00;;
75535;SDS011;64119;52.070;20.804;2023-11-21T06:00:59;15.40;;;7.10;;
75535;SDS011;64119;52.070;20.804;2023-11-21T06:03:27;31.60;;;14.70;;
75535;SDS011;64119;52.070;20.804;2023-11-21T06:05:55;18.80;;;8.70;;
75535;SDS011;64119;52.070;20.804;2023-11-21T06:08:23;17.70;;;10.70;;
75535;SDS011;64119;52.070;20.804;2023-11-21T06:10:50;21.00;;;10.90;;
75535;SDS011;64119;52.070;20.804;2023-11-21T06:13:18;27.40;;;12.80;;
75535;SDS011;64119;52.070;20.804;2023-11-21T06:15:52;11.80;;;6.60;;
75535;SDS011;64119;52.070;20.804;2023-11-21T06:18:20;16.20;;;9.10;;
75535;SDS011;64119;52.070;20.804;2023-11-21T06:20:48;13.20;;;7.30;;
75535;SDS011;64119;52.070;20.804;2023-11-21T06:23:15;10.80;;;6.40;;
75535;SDS011;64119;52.070;20.804;2023-11-21T06:25:44;13.40;;;8.90;;
75535;SDS011;64119;52.070;20.804;2023-11-21T06:28:12;21.50;;;11.00;;
75535;SDS011;64119;52.070;20.804;2023-11-21T06:30:40;29.00;;;14.30;;
75535;SDS011;64119;52.070;20.804;2023-11-21T06:33:08;17.40;;;9.20;;
75535;SDS011;64119;52.070;20.804;2023-11-21T06:35:36;14.60;;;7.90;;
75535;SDS011;64119;52.070;20.804;2023-11-21T06:38:04;10.60;;;6.00;;
75535;SDS011;64119;52.070;20.804;2023-11-21T06:40:32;12.10;;;7.70;;
75535;SDS011;64119;52.070;20.804;2023-11-21T06:43:01;16.30;;;8.70;;
75535;SDS011;64119;52.070;20.804;2023-11-21T06:45:29;15.60;;;8.80;;
75535;SDS011;64119;52.070;20.804;2023-11-21T06:47:57;14.00;;;8.00;;
75535;SDS011;64119;52.070;20.804;2023-11-21T06:50:25;12.10;;;6.90;;
75535;SDS011;64119;52.070;20.804;2023-11-21T06:52:53;15.90;;;8.60;;
75535;SDS011;64119;52.070;20.804;2023-11-21T06:55:21;14.80;;;8.30;;
75535;SDS011;64119;52.070;20.804;2023-11-21T06:57:49;12.80;;;7.20;;
75535;SDS011;64119;52.070;20.804;2023-11-21T07:00:17;10.30;;;5.80;;
75535;SDS011;64119;52.070;20.804;2023-11-21T07:02:45;10.30;;;5.90;;
75535;SDS011;64119;52.070;20.804;2023-11-21T07:05:13;11.50;;;6.10;;
75535;SDS011;64119;52.070;20.804;2023-11-21T07:07:43;15.60;;;8.10;;
75535;SDS011;64119;52.070;20.804;2023-11-21T07:10:11;25.30;;;12.30;;
75535;SDS011;64119;52.070;20.804;2023-11-21T07:12:40;84.10;;;33.90;;
75535;SDS011;64119;52.070;20.804;2023-11-21T07:15:08;80.10;;;31.50;;
75535;SDS011;64119;52.070;20.804;2023-11-21T07:17:37;31.00;;;16.20;;
75535;SDS011;64119;52.070;20.804;2023-11-21T07:20:08;39.60;;;19.00;;
75535;SDS011;64119;52.070;20.804;2023-11-21T07:22:36;41.60;;;20.60;;
75535;SDS011;64119;52.070;20.804;2023-11-21T07:25:04;14.80;;;8.00;;
75535;SDS011;64119;52.070;20.804;2023-11-21T07:27:32;17.60;;;11.50;;
75535;SDS011;64119;52.070;20.804;2023-11-21T07:30:03;20.30;;;12.00;;
75535;SDS011;64119;52.070;20.804;2023-11-21T07:32:32;15.50;;;8.90;;
75535;SDS011;64119;52.070;20.804;2023-11-21T07:35:00;11.90;;;7.10;;
75535;SDS011;64119;52.070;20.804;2023-11-21T07:37:29;17.00;;;9.90;;
75535;SDS011;64119;52.070;20.804;2023-11-21T07:39:57;22.30;;;10.70;;
75535;SDS011;64119;52.070;20.804;2023-11-21T07:42:24;19.10;;;9.30;;
75535;SDS011;64119;52.070;20.804;2023-11-21T07:44:55;16.50;;;7.80;;
75535;SDS011;64119;52.070;20.804;2023-11-21T07:47:24;14.00;;;7.40;;
75535;SDS011;64119;52.070;20.804;2023-11-21T07:49:55;12.00;;;6.50;;
75535;SDS011;64119;52.070;20.804;2023-11-21T07:52:23;12.30;;;6.20;;
75535;SDS011;64119;52.070;20.804;2023-11-21T07:54:51;14.50;;;7.20;;
75535;SDS011;64119;52.070;20.804;2023-11-21T07:57:19;10.70;;;5.90;;
75535;SDS011;64119;52.070;20.804;2023-11-21T07:59:47;14.70;;;7.60;;
75535;SDS011;64119;52.070;20.804;2023-11-21T08:02:15;22.90;;;11.40;;
75535;SDS011;64119;52.070;20.804;2023-11-21T08:07:13;36.40;;;16.50;;
75535;SDS011;64119;52.070;20.804;2023-11-21T08:09:41;23.70;;;10.50;;
75535;SDS011;64119;52.070;20.804;2023-11-21T08:12:08;35.50;;;17.00;;
75535;SDS011;64119;52.070;20.804;2023-11-21T08:14:38;22.90;;;13.60;;
75535;SDS011;64119;52.070;20.804;2023-11-21T08:17:06;21.10;;;9.60;;
75535;SDS011;64119;52.070;20.804;2023-11-21T08:19:35;16.80;;;7.90;;
75535;SDS011;64119;52.070;20.804;2023-11-21T08:22:03;21.60;;;8.40;;
75535;SDS011;64119;52.070;20.804;2023-11-21T08:24:31;21.80;;;8.40;;
75535;SDS011;64119;52.070;20.804;2023-11-21T08:26:59;21.30;;;8.50;;
75535;SDS011;64119;52.070;20.804;2023-11-21T08:29:27;77.80;;;23.10;;
75535;SDS011;64119;52.070;20.804;2023-11-21T08:31:55;59.60;;;23.20;;
75535;SDS011;64119;52.070;20.804;2023-11-21T08:34:23;23.40;;;10.20;;
75535;SDS011;64119;52.070;20.804;2023-11-21T08:36:51;14.80;;;6.60;;
75535;SDS011;64119;52.070;20.804;2023-11-21T08:39:19;12.90;;;5.70;;
75535;SDS011;64119;52.070;20.804;2023-11-21T08:41:47;10.10;;;5.10;;
75535;SDS011;64119;52.070;20.804;2023-11-21T08:44:15;11.70;;;5.80;;
75535;SDS011;64119;52.070;20.804;2023-11-21T08:46:45;10.70;;;5.70;;
75535;SDS011;64119;52.070;20.804;2023-11-21T08:49:14;11.00;;;6.30;;
75535;SDS011;64119;52.070;20.804;2023-11-21T08:51:44;10.50;;;5.30;;
75535;SDS011;64119;52.070;20.804;2023-11-21T08:54:12;10.70;;;5.00;;
75535;SDS011;64119;52.070;20.804;2023-11-21T08:56:40;11.10;;;5.70;;
75535;SDS011;64119;52.070;20.804;2023-11-21T08:59:07;12.30;;;7.10;;
75535;SDS011;64119;52.070;20.804;2023-11-21T09:01:35;15.60;;;8.00;;
75535;SDS011;64119;52.070;20.804;2023-11-21T09:04:04;81.40;;;31.60;;
75535;SDS011;64119;52.070;20.804;2023-11-21T09:06:32;33.70;;;14.40;;
75535;SDS011;64119;52.070;20.804;2023-11-21T09:09:00;25.60;;;11.40;;
75535;SDS011;64119;52.070;20.804;2023-11-21T09:11:28;26.20;;;12.10;;
75535;SDS011;64119;52.070;20.804;2023-11-21T09:14:01;21.30;;;9.40;;
75535;SDS011;64119;52.070;20.804;2023-11-21T09:16:29;13.30;;;6.60;;
75535;SDS011;64119;52.070;20.804;2023-11-21T09:18:58;15.50;;;7.00;;
75535;SDS011;64119;52.070;20.804;2023-11-21T09:21:26;11.50;;;6.00;;
75535;SDS011;64119;52.070;20.804;2023-11-21T09:23:55;12.30;;;6.50;;
75535;SDS011;64119;52.070;20.804;2023-11-21T09:26:23;9.90;;;4.60;;
75535;SDS011;64119;52.070;20.804;2023-11-21T09:28:51;12.30;;;5.60;;
75535;SDS011;64119;52.070;20.804;2023-11-21T09:31:20;9.60;;;5.10;;
75535;SDS011;64119;52.070;20.804;2023-11-21T09:33:50;11.90;;;4.80;;
75535;SDS011;64119;52.070;20.804;2023-11-21T09:36:18;10.50;;;5.10;;
75535;SDS011;64119;52.070;20.804;2023-11-21T09:38:46;11.80;;;6.40;;
75535;SDS011;64119;52.070;20.804;2023-11-21T09:41:32;13.70;;;5.90;;
75535;SDS011;64119;52.070;20.804;2023-11-21T09:44:08;12.90;;;7.30;;
75535;SDS011;64119;52.070;20.804;2023-11-21T09:46:41;48.10;;;18.00;;
75535;SDS011;64119;52.070;20.804;2023-11-21T09:49:10;30.20;;;13.50;;
75535;SDS011;64119;52.070;20.804;2023-11-21T09:51:42;42.40;;;15.00;;
75535;SDS011;64119;52.070;20.804;2023-11-21T09:54:10;47.80;;;19.20;;
75535;SDS011;64119;52.070;20.804;2023-11-21T09:56:39;35.50;;;14.90;;
75535;SDS011;64119;52.070;20.804;2023-11-21T09:59:08;22.60;;;10.90;;
75535;SDS011;64119;52.070;20.804;2023-11-21T10:01:40;35.70;;;15.10;;
75535;SDS011;64119;52.070;20.804;2023-11-21T10:04:09;26.90;;;12.30;;
75535;SDS011;64119;52.070;20.804;2023-11-21T10:06:40;18.70;;;9.70;;
75535;SDS011;64119;52.070;20.804;2023-11-21T10:09:13;16.70;;;8.50;;
75535;SDS011;64119;52.070;20.804;2023-11-21T10:11:41;15.90;;;8.30;;
75535;SDS011;64119;52.070;20.804;2023-11-21T10:14:11;10.90;;;5.90;;
75535;SDS011;64119;52.070;20.804;2023-11-21T10:16:41;14.90;;;6.60;;
75535;SDS011;64119;52.070;20.804;2023-11-21T10:19:12;10.90;;;6.50;;
75535;SDS011;64119;52.070;20.804;2023-11-21T10:21:43;14.90;;;7.20;;
75535;SDS011;64119;52.070;20.804;2023-11-21T10:24:11;12.50;;;6.10;;
75535;SDS011;64119;52.070;20.804;2023-11-21T10:26:40;10.30;;;5.90;;
75535;SDS011;64119;52.070;20.804;2023-11-21T10:29:19;14.30;;;7.80;;
75535;SDS011;64119;52.070;20.804;2023-11-21T10:31:50;13.20;;;7.20;;
75535;SDS011;64119;52.070;20.804;2023-11-21T10:34:19;14.80;;;6.60;;
75535;SDS011;64119;52.070;20.804;2023-11-21T10:39:18;12.20;;;6.60;;
75535;SDS011;64119;52.070;20.804;2023-11-21T10:41:48;13.40;;;7.10;;
75535;SDS011;64119;52.070;20.804;2023-11-21T10:44:16;22.90;;;11.40;;
75535;SDS011;64119;52.070;20.804;2023-11-21T10:46:49;14.40;;;6.80;;
75535;SDS011;64119;52.070;20.804;2023-11-21T10:49:19;22.60;;;10.10;;
75535;SDS011;64119;52.070;20.804;2023-11-21T10:51:47;17.40;;;8.70;;
75535;SDS011;64119;52.070;20.804;2023-11-21T10:54:19;15.70;;;7.60;;
75535;SDS011;64119;52.070;20.804;2023-11-21T10:56:49;16.90;;;9.20;;
75535;SDS011;64119;52.070;20.804;2023-11-21T10:59:19;10.90;;;6.20;;
75535;SDS011;64119;52.070;20.804;2023-11-21T11:01:48;11.10;;;6.40;;
75535;SDS011;64119;52.070;20.804;2023-11-21T11:04:19;17.90;;;10.50;;
75535;SDS011;64119;52.070;20.804;2023-11-21T11:06:50;18.40;;;9.20;;
75535;SDS011;64119;52.070;20.804;2023-11-21T11:09:22;13.80;;;7.10;;
75535;SDS011;64119;52.070;20.804;2023-11-21T11:11:50;11.10;;;5.40;;
75535;SDS011;64119;52.070;20.804;2023-11-21T11:14:19;16.20;;;8.50;;
75535;SDS011;64119;52.070;20.804;2023-11-21T11:16:47;15.80;;;9.10;;
75535;SDS011;64119;52.070;20.804;2023-11-21T11:19:17;13.10;;;7.90;;
75535;SDS011;64119;52.070;20.804;2023-11-21T11:27:52;11.30;;;5.80;;
75535;SDS011;64119;52.070;20.804;2023-11-21T11:33:39;11.50;;;6.90;;
75535;SDS011;64119;52.070;20.804;2023-11-21T11:38:49;16.20;;;6.70;;
75535;SDS011;64119;52.070;20.804;2023-11-21T11:41:27;12.90;;;7.30;;
75535;SDS011;64119;52.070;20.804;2023-11-21T11:46:44;12.40;;;6.90;;
75535;SDS011;64119;52.070;20.804;2023-11-21T11:49:24;11.40;;;6.00;;
75535;SDS011;64119;52.070;20.804;2023-11-21T11:55:15;13.30;;;7.10;;
75535;SDS011;64119;52.070;20.804;2023-11-21T11:57:46;11.70;;;6.10;;
75535;SDS011;64119;52.070;20.804;2023-11-21T12:02:49;14.30;;;6.00;;
75535;SDS011;64119;52.070;20.804;2023-11-21T12:05:20;13.80;;;5.60;;
75535;SDS011;64119;52.070;20.804;2023-11-21T12:07:49;12.20;;;6.70;;
75535;SDS011;64119;52.070;20.804;2023-11-21T12:10:25;14.70;;;7.90;;
75535;SDS011;64119;52.070;20.804;2023-11-21T12:12:56;16.00;;;7.50;;
75535;SDS011;64119;52.070;20.804;2023-11-21T12:15:24;11.70;;;6.30;;
75535;SDS011;64119;52.070;20.804;2023-11-21T12:17:53;12.10;;;6.80;;
75535;SDS011;64119;52.070;20.804;2023-11-21T12:20:21;12.50;;;6.20;;
75535;SDS011;64119;52.070;20.804;2023-11-21T12:22:51;12.60;;;6.30;;
75535;SDS011;64119;52.070;20.804;2023-11-21T12:25:24;12.10;;;6.50;;
75535;SDS011;64119;52.070;20.804;2023-11-21T12:27:56;15.40;;;7.40;;
75535;SDS011;64119;52.070;20.804;2023-11-21T12:30:31;12.80;;;7.00;;
75535;SDS011;64119;52.070;20.804;2023-11-21T12:33:03;13.20;;;6.70;;
75535;SDS011;64119;52.070;20.804;2023-11-21T12:35:34;22.50;;;12.30;;
75535;SDS011;64119;52.070;20.804;2023-11-21T12:38:03;19.20;;;10.90;;
75535;SDS011;64119;52.070;20.804;2023-11-21T12:40:37;30.80;;;16.90;;
75535;SDS011;64119;52.070;20.804;2023-11-21T12:43:06;20.50;;;11.70;;
75535;SDS011;64119;52.070;20.804;2023-11-21T12:45:35;14.00;;;8.70;;
75535;SDS011;64119;52.070;20.804;2023-11-21T12:48:05;19.50;;;9.90;;
75535;SDS011;64119;52.070;20.804;2023-11-21T12:50:39;16.00;;;7.70;;
75535;SDS011;64119;52.070;20.804;2023-11-21T12:53:11;9.30;;;5.20;;
75535;SDS011;64119;52.070;20.804;2023-11-21T12:55:40;9.10;;;5.60;;
75535;SDS011;64119;52.070;20.804;2023-11-21T12:58:10;14.30;;;8.50;;
75535;SDS011;64119;52.070;20.804;2023-11-21T13:00:43;14.40;;;9.90;;
75535;SDS011;64119;52.070;20.804;2023-11-21T13:03:14;15.90;;;7.60;;
75535;SDS011;64119;52.070;20.804;2023-11-21T13:05:53;11.00;;;7.10;;
75535;SDS011;64119;52.070;20.804;2023-11-21T13:08:23;15.50;;;7.90;;
75535;SDS011;64119;52.070;20.804;2023-11-21T13:10:53;13.60;;;9.30;;
75535;SDS011;64119;52.070;20.804;2023-11-21T13:13:25;14.00;;;7.90;;
75535;SDS011;64119;52.070;20.804;2023-11-21T13:16:00;12.10;;;7.10;;
75535;SDS011;64119;52.070;20.804;2023-11-21T13:18:31;16.50;;;8.90;;
75535;SDS011;64119;52.070;20.804;2023-11-21T13:21:06;14.40;;;8.20;;
75535;SDS011;64119;52.070;20.804;2023-11-21T13:23:41;13.30;;;7.30;;
75535;SDS011;64119;52.070;20.804;2023-11-21T13:26:11;9.30;;;5.20;;
75535;SDS011;64119;52.070;20.804;2023-11-21T13:28:40;12.20;;;7.50;;
75535;SDS011;64119;52.070;20.804;2023-11-21T13:31:13;18.30;;;10.30;;
75535;SDS011;64119;52.070;20.804;2023-11-21T13:33:53;16.80;;;9.80;;
75535;SDS011;64119;52.070;20.804;2023-11-21T13:36:27;14.10;;;8.50;;
75535;SDS011;64119;52.070;20.804;2023-11-21T13:38:58;17.00;;;9.60;;
75535;SDS011;64119;52.070;20.804;2023-11-21T13:41:27;14.10;;;7.10;;
75535;SDS011;64119;52.070;20.804;2023-11-21T13:44:00;13.40;;;8.80;;
75535;SDS011;64119;52.070;20.804;2023-11-21T13:46:43;16.50;;;10.50;;
75535;SDS011;64119;52.070;20.804;2023-11-21T13:49:13;18.50;;;9.80;;
75535;SDS011;64119;52.070;20.804;2023-11-21T13:51:43;16.10;;;9.50;;
75535;SDS011;64119;52.070;20.804;2023-11-21T13:54:18;10.40;;;5.40;;
75535;SDS011;64119;52.070;20.804;2023-11-21T13:56:47;12.40;;;6.10;;
75535;SDS011;64119;52.070;20.804;2023-11-21T13:59:17;12.60;;;6.50;;
75535;SDS011;64119;52.070;20.804;2023-11-21T14:01:51;15.70;;;8.90;;
75535;SDS011;64119;52.070;20.804;2023-11-21T14:04:22;16.50;;;8.70;;
75535;SDS011;64119;52.070;20.804;2023-11-21T14:06:59;13.90;;;9.50;;
75535;SDS011;64119;52.070;20.804;2023-11-21T14:09:38;14.20;;;7.50;;
75535;SDS011;64119;52.070;20.804;2023-11-21T14:12:12;15.10;;;7.80;;
75535;SDS011;64119;52.070;20.804;2023-11-21T14:14:41;14.60;;;8.00;;
75535;SDS011;64119;52.070;20.804;2023-11-21T14:17:09;15.60;;;8.50;;
75535;SDS011;64119;52.070;20.804;2023-11-21T14:19:43;13.30;;;7.90;;
75535;SDS011;64119;52.070;20.804;2023-11-21T14:22:12;19.40;;;10.20;;
75535;SDS011;64119;52.070;20.804;2023-11-21T14:24:40;23.30;;;12.40;;
75535;SDS011;64119;52.070;20.804;2023-11-21T14:27:14;14.20;;;7.70;;
75535;SDS011;64119;52.070;20.804;2023-11-21T14:29:43;13.70;;;8.60;;
75535;SDS011;64119;52.070;20.804;2023-11-21T14:32:12;14.40;;;7.30;;
75535;SDS011;64119;52.070;20.804;2023-11-21T14:37:14;13.50;;;8.00;;
75535;SDS011;64119;52.070;20.804;2023-11-21T14:39:42;17.50;;;9.00;;
75535;SDS011;64119;52.070;20.804;2023-11-21T14:42:13;19.20;;;9.50;;
75535;SDS011;64119;52.070;20.804;2023-11-21T14:47:11;19.20;;;12.60;;
75535;SDS011;64119;52.070;20.804;2023-11-21T14:49:44;22.90;;;16.10;;
75535;SDS011;64119;52.070;20.804;2023-11-21T14:52:24;16.60;;;12.00;;
75535;SDS011;64119;52.070;20.804;2023-11-21T14:55:04;18.10;;;9.10;;
75535;SDS011;64119;52.070;20.804;2023-11-21T14:57:51;16.00;;;8.50;;
75535;SDS011;64119;52.070;20.804;2023-11-21T15:00:20;16.60;;;8.90;;
75535;SDS011;64119;52.070;20.804;2023-11-21T15:03:01;18.00;;;9.90;;
75535;SDS011;64119;52.070;20.804;2023-11-21T15:05:30;19.00;;;11.20;;